createdAt,value
2023-03-20T00:00:51.879Z,75.93
2023-03-20T00:02:00.331Z,75.92
2023-03-20T00:03:21.991Z,75.95
2023-03-20T00:04:44.550Z,75.91
2023-03-20T00:06:13.048Z,75.82
2023-03-20T00:07:35.988Z,75.61
2023-03-20T00:08:58.621Z,75.78
2023-03-20T00:10:20.969Z,75.67
2023-03-20T00:11:49.159Z,75.62
2023-03-20T00:13:16.751Z,75.70
2023-03-20T00:14:38.445Z,75.58
2023-03-20T00:16:00.963Z,75.54
2023-03-20T00:17:22.524Z,75.64
2023-03-20T00:18:45.159Z,75.43
2023-03-20T00:20:13.760Z,75.61
2023-03-20T00:21:36.254Z,75.53
2023-03-20T00:23:00.085Z,75.42
2023-03-20T00:24:22.259Z,75.59
2023-03-20T00:25:46.925Z,75.37
2023-03-20T00:27:13.377Z,75.47
2023-03-20T00:28:42.053Z,75.36
2023-03-20T00:30:05.741Z,75.04
2023-03-20T00:31:30.334Z,75.28
2023-03-20T00:32:52.476Z,75.68
2023-03-20T00:34:17.206Z,75.39
2023-03-20T00:35:40.778Z,75.25
2023-03-20T00:37:04.095Z,75.39
2023-03-20T00:38:28.947Z,75.66
2023-03-20T00:39:51.631Z,75.33
2023-03-20T00:41:26.160Z,75.36
2023-03-20T00:42:52.575Z,75.48
2023-03-20T00:44:22.988Z,75.41
2023-03-20T00:45:47.730Z,75.43
2023-03-20T00:47:13.851Z,75.34
2023-03-20T00:48:36.788Z,75.56
2023-03-20T00:49:59.004Z,75.44
2023-03-20T00:51:21.497Z,75.41
2023-03-20T00:52:44.461Z,75.59
2023-03-20T00:54:13.772Z,75.44
2023-03-20T00:55:36.473Z,75.32
2023-03-20T00:57:00.470Z,75.55
2023-03-20T00:58:22.981Z,75.51
2023-03-20T00:59:52.367Z,75.45
2023-03-20T01:01:14.937Z,75.34
2023-03-20T01:02:36.676Z,75.37
2023-03-20T01:04:00.403Z,75.14
2023-03-20T01:05:22.382Z,75.42
2023-03-20T01:06:45.024Z,75.36
2023-03-20T01:08:13.471Z,75.43
2023-03-20T01:09:37.353Z,75.06
2023-03-20T01:11:00.165Z,75.34
2023-03-20T01:12:21.749Z,75.18
2023-03-20T01:13:44.266Z,75.29
2023-03-20T01:15:17.344Z,75.41
2023-03-20T01:16:40.115Z,75.33
2023-03-20T01:18:01.671Z,75.22
2023-03-20T01:19:24.167Z,75.48
2023-03-20T01:20:46.068Z,75.28
2023-03-20T01:22:09.463Z,75.17
2023-03-20T01:23:36.700Z,75.46
2023-03-20T01:24:59.604Z,75.26
2023-03-20T01:26:28.110Z,75.42
2023-03-20T01:27:51.248Z,75.45
2023-03-20T01:29:19.696Z,75.65
2023-03-20T01:30:42.204Z,75.50
2023-03-20T01:32:03.918Z,75.38
2023-03-20T01:33:27.740Z,75.33
2023-03-20T01:34:49.291Z,75.36
2023-03-20T01:36:12.739Z,75.45
2023-03-20T01:37:34.580Z,75.43
2023-03-20T01:39:02.531Z,75.18
2023-03-20T01:40:44.546Z,75.17
2023-03-20T01:42:07.213Z,75.24
2023-03-20T01:43:30.754Z,75.39
2023-03-20T01:44:52.793Z,75.33
2023-03-20T01:46:19.376Z,74.95
2023-03-20T01:47:42.035Z,75.24
2023-03-20T01:49:49.482Z,75.66
2023-03-20T01:51:11.969Z,75.33
2023-03-20T01:52:33.557Z,75.15
2023-03-20T01:53:59.750Z,75.52
2023-03-20T01:55:22.537Z,75.50
2023-03-20T01:56:50.294Z,75.59
2023-03-20T01:58:16.274Z,75.48
2023-03-20T01:59:44.866Z,75.49
2023-03-20T02:01:12.253Z,75.64
2023-03-20T02:02:33.862Z,75.62
2023-03-20T02:03:57.326Z,75.51
2023-03-20T02:05:21.922Z,75.59
2023-03-20T02:06:45.912Z,75.73
2023-03-20T02:08:22.344Z,75.83
2023-03-20T02:09:44.868Z,75.83
2023-03-20T02:11:07.683Z,75.93
2023-03-20T02:12:31.568Z,75.95
2023-03-20T02:13:57.795Z,75.83
2023-03-20T02:15:19.562Z,76.04
2023-03-20T02:16:42.576Z,76.20
2023-03-20T02:18:04.367Z,76.11
2023-03-20T02:19:32.845Z,76.24
2023-03-20T02:21:37.789Z,76.27
2023-03-20T02:23:48.432Z,76.44
2023-03-20T02:25:38.789Z,76.33
2023-03-20T02:27:14.541Z,76.32
2023-03-20T02:29:14.396Z,76.32
2023-03-20T02:30:55.732Z,76.42
2023-03-20T02:33:02.383Z,76.35
2023-03-20T02:34:55.377Z,76.31
2023-03-20T02:36:51.977Z,76.42
2023-03-20T02:38:25.193Z,76.39
2023-03-20T02:39:57.127Z,76.42
2023-03-20T02:41:26.127Z,76.11
2023-03-20T02:42:57.412Z,76.63
2023-03-20T02:44:30.213Z,76.64
2023-03-20T02:45:37.352Z,76.60
2023-03-20T02:46:51.127Z,76.73
2023-03-20T02:48:01.170Z,76.79
2023-03-20T02:49:10.376Z,76.89
2023-03-20T02:50:17.434Z,76.81
2023-03-20T02:51:24.944Z,76.86
2023-03-20T02:52:37.146Z,76.85
2023-03-20T02:53:49.245Z,76.98
2023-03-20T02:55:07.116Z,77.00
2023-03-20T02:56:14.555Z,76.92
2023-03-20T02:57:23.325Z,77.19
2023-03-20T02:58:30.992Z,77.09
2023-03-20T02:59:41.424Z,77.08
2023-03-20T03:00:50.689Z,77.13
2023-03-20T03:01:56.249Z,77.19
2023-03-20T03:03:05.847Z,77.19
2023-03-20T03:04:12.630Z,77.24
2023-03-20T03:05:19.862Z,77.07
2023-03-20T03:06:27.467Z,77.14
2023-03-20T03:07:33.410Z,77.14
2023-03-20T03:08:42.302Z,77.11
2023-03-20T03:09:49.092Z,77.06
2023-03-20T03:10:56.459Z,76.99
2023-03-20T03:12:03.086Z,77.01
2023-03-20T03:13:11.248Z,77.10
2023-03-20T03:14:21.325Z,77.04
2023-03-20T03:15:29.915Z,77.12
2023-03-20T03:16:37.557Z,77.09
2023-03-20T03:17:43.192Z,77.15
2023-03-20T03:18:46.666Z,77.17
2023-03-20T03:19:53.310Z,77.19
2023-03-20T03:20:58.226Z,77.16
2023-03-20T03:22:01.708Z,77.39
2023-03-20T03:23:04.861Z,77.28
2023-03-20T03:24:21.762Z,77.17
2023-03-20T03:25:37.102Z,77.06
2023-03-20T03:26:40.985Z,77.22
2023-03-20T03:27:46.954Z,77.07
2023-03-20T03:28:51.564Z,77.21
2023-03-20T03:29:58.671Z,76.93
2023-03-20T03:31:00.873Z,77.08
2023-03-20T03:32:07.129Z,77.07
2023-03-20T03:33:17.038Z,77.08
2023-03-20T03:34:22.620Z,77.02
2023-03-20T03:35:24.542Z,77.07
2023-03-20T03:36:38.045Z,76.96
2023-03-20T03:37:48.079Z,77.03
2023-03-20T03:39:02.512Z,77.01
2023-03-20T03:40:14.089Z,76.99
2023-03-20T03:41:24.414Z,76.92
2023-03-20T03:42:33.875Z,76.99
2023-03-20T03:43:44.416Z,76.96
2023-03-20T03:44:53.954Z,77.13
2023-03-20T03:46:01.922Z,76.84
2023-03-20T03:47:08.398Z,77.05
2023-03-20T03:48:16.126Z,76.94
2023-03-20T03:49:22.502Z,77.05
2023-03-20T03:50:29.440Z,77.01
2023-03-20T03:51:37.747Z,76.93
2023-03-20T03:52:41.854Z,76.98
2023-03-20T03:53:49.632Z,76.71
2023-03-20T03:54:58.684Z,76.80
2023-03-20T03:56:03.882Z,76.68
2023-03-20T03:57:09.550Z,76.66
2023-03-20T03:58:13.655Z,76.48
2023-03-20T03:59:28.192Z,76.46
2023-03-20T04:00:33.540Z,76.29
2023-03-20T04:01:38.007Z,76.27
2023-03-20T04:02:41.441Z,76.18
2023-03-20T04:03:49.908Z,76.22
2023-03-20T04:04:54.288Z,75.97
2023-03-20T04:05:59.358Z,75.94
2023-03-20T04:07:11.162Z,75.92
2023-03-20T04:08:16.159Z,75.93
2023-03-20T04:09:17.666Z,75.88
2023-03-20T04:10:28.228Z,75.73
2023-03-20T04:11:37.521Z,75.65
2023-03-20T04:12:48.078Z,75.51
2023-03-20T04:13:51.303Z,75.57
2023-03-20T04:14:53.875Z,75.54
2023-03-20T04:15:55.660Z,75.50
2023-03-20T04:16:58.161Z,75.50
2023-03-20T04:17:59.841Z,75.34
2023-03-20T04:19:02.354Z,75.38
2023-03-20T04:20:05.313Z,75.38
2023-03-20T04:21:16.007Z,75.32
2023-03-20T04:22:17.564Z,75.32
2023-03-20T04:23:20.214Z,75.07
2023-03-20T04:24:22.022Z,75.32
2023-03-20T04:25:27.369Z,75.23
2023-03-20T04:26:28.919Z,75.33
2023-03-20T04:27:31.546Z,75.34
2023-03-20T04:28:34.477Z,75.32
2023-03-20T04:29:39.216Z,75.21
2023-03-20T04:30:40.994Z,75.20
2023-03-20T04:31:43.484Z,75.30
2023-03-20T04:32:45.088Z,75.08
2023-03-20T04:33:47.738Z,74.89
2023-03-20T04:34:49.563Z,75.17
2023-03-20T04:35:52.227Z,75.08
2023-03-20T04:36:54.813Z,75.12
2023-03-20T04:37:56.333Z,75.09
2023-03-20T04:39:02.469Z,75.02
2023-03-20T04:40:04.682Z,75.21
2023-03-20T04:41:08.021Z,75.35
2023-03-20T04:42:10.012Z,74.99
2023-03-20T04:43:13.012Z,75.14
2023-03-20T04:44:16.096Z,75.04
2023-03-20T04:45:18.746Z,74.98
2023-03-20T04:46:23.441Z,75.05
2023-03-20T04:47:26.110Z,74.98
2023-03-20T04:48:27.934Z,75.09
2023-03-20T04:49:30.446Z,75.04
2023-03-20T04:50:32.266Z,75.08
2023-03-20T04:51:34.756Z,75.09
2023-03-20T04:52:37.333Z,75.11
2023-03-20T04:53:39.078Z,75.06
2023-03-20T04:54:41.569Z,75.21
2023-03-20T04:55:43.794Z,75.10
2023-03-20T04:56:46.477Z,74.91
2023-03-20T04:57:48.248Z,75.13
2023-03-20T04:58:50.813Z,75.12
2023-03-20T04:59:57.893Z,75.14
2023-03-20T05:01:00.452Z,75.07
2023-03-20T05:02:14.959Z,74.99
2023-03-20T05:03:23.924Z,74.93
2023-03-20T05:04:26.307Z,74.85
2023-03-20T05:05:29.406Z,74.90
2023-03-20T05:06:32.617Z,75.01
2023-03-20T05:07:34.147Z,74.97
2023-03-20T05:08:36.695Z,74.96
2023-03-20T05:09:38.774Z,75.00
2023-03-20T05:10:41.270Z,74.95
2023-03-20T05:11:43.575Z,74.89
2023-03-20T05:12:46.284Z,75.11
2023-03-20T05:13:48.145Z,74.93
2023-03-20T05:14:50.711Z,74.85
2023-03-20T05:15:53.799Z,75.03
2023-03-20T05:17:06.471Z,74.92
2023-03-20T05:18:09.698Z,74.97
2023-03-20T05:19:12.187Z,74.97
2023-03-20T05:20:14.408Z,75.03
2023-03-20T05:21:16.964Z,75.03
2023-03-20T05:22:18.662Z,75.01
2023-03-20T05:23:21.151Z,75.02
2023-03-20T05:24:22.836Z,74.99
2023-03-20T05:25:25.330Z,75.20
2023-03-20T05:26:27.009Z,75.05
2023-03-20T05:27:29.641Z,75.26
2023-03-20T05:28:31.187Z,75.14
2023-03-20T05:29:33.741Z,75.12
2023-03-20T05:30:45.289Z,75.10
2023-03-20T05:31:49.145Z,75.19
2023-03-20T05:32:56.220Z,75.36
2023-03-20T05:34:01.107Z,75.42
2023-03-20T05:35:02.668Z,75.35
2023-03-20T05:36:06.063Z,75.28
2023-03-20T05:37:08.666Z,75.43
2023-03-20T05:38:22.616Z,75.42
2023-03-20T05:39:25.143Z,75.38
2023-03-20T05:40:27.206Z,75.44
2023-03-20T05:41:29.705Z,75.53
2023-03-20T05:42:41.264Z,75.49
2023-03-20T05:43:44.232Z,75.48
2023-03-20T05:44:46.056Z,75.68
2023-03-20T05:45:50.329Z,75.53
2023-03-20T05:46:54.431Z,75.56
2023-03-20T05:47:56.960Z,75.55
2023-03-20T05:49:01.561Z,75.54
2023-03-20T05:50:04.438Z,75.59
2023-03-20T05:51:06.936Z,75.55
2023-03-20T05:52:09.571Z,75.75
2023-03-20T05:53:11.954Z,75.69
2023-03-20T05:54:14.575Z,75.58
2023-03-20T05:55:16.602Z,75.75
2023-03-20T05:56:19.272Z,75.98
2023-03-20T05:57:20.916Z,75.89
2023-03-20T05:58:23.727Z,75.95
2023-03-20T05:59:25.366Z,75.86
2023-03-20T06:00:28.042Z,76.06
2023-03-20T06:01:39.571Z,76.06
2023-03-20T06:02:53.643Z,75.89
2023-03-20T06:03:55.298Z,76.21
2023-03-20T06:04:57.977Z,76.07
2023-03-20T06:05:59.927Z,76.36
2023-03-20T06:07:02.613Z,76.35
2023-03-20T06:08:04.806Z,76.12
2023-03-20T06:09:07.349Z,76.24
2023-03-20T06:10:10.309Z,76.27
2023-03-20T06:11:12.834Z,76.43
2023-03-20T06:12:14.647Z,76.28
2023-03-20T06:13:17.426Z,76.52
2023-03-20T06:14:18.951Z,76.29
2023-03-20T06:15:21.786Z,76.47
2023-03-20T06:16:24.092Z,76.55
2023-03-20T06:17:26.775Z,76.55
2023-03-20T06:18:30.594Z,76.49
2023-03-20T06:19:32.262Z,76.46
2023-03-20T06:20:35.208Z,76.29
2023-03-20T06:21:36.737Z,76.56
2023-03-20T06:22:39.292Z,76.38
2023-03-20T06:23:41.077Z,76.46
2023-03-20T06:24:44.316Z,76.54
2023-03-20T06:25:46.062Z,76.73
2023-03-20T06:26:48.685Z,76.41
2023-03-20T06:28:01.486Z,76.29
2023-03-20T06:29:03.898Z,76.43
2023-03-20T06:30:07.845Z,76.34
2023-03-20T06:31:09.891Z,76.38
2023-03-20T06:32:15.236Z,76.28
2023-03-20T06:33:17.906Z,76.28
2023-03-20T06:34:21.391Z,76.16
2023-03-20T06:35:23.974Z,76.26
2023-03-20T06:36:25.837Z,76.14
2023-03-20T06:37:33.308Z,76.30
2023-03-20T06:38:34.886Z,76.18
2023-03-20T06:39:37.761Z,75.96
2023-03-20T06:40:49.318Z,75.97
2023-03-20T06:41:51.844Z,76.02
2023-03-20T06:43:04.746Z,75.90
2023-03-20T06:44:06.754Z,75.76
2023-03-20T06:45:11.103Z,75.84
2023-03-20T06:46:12.770Z,75.59
2023-03-20T06:47:16.445Z,75.68
2023-03-20T06:48:21.869Z,75.76
2023-03-20T06:49:26.172Z,75.45
2023-03-20T06:50:27.747Z,75.44
2023-03-20T06:51:31.550Z,75.23
2023-03-20T06:52:35.570Z,75.29
2023-03-20T06:53:39.557Z,75.07
2023-03-20T06:54:41.997Z,75.31
2023-03-20T06:55:44.670Z,74.96
2023-03-20T06:56:46.597Z,74.85
2023-03-20T06:57:49.115Z,74.82
2023-03-20T06:58:50.977Z,74.70
2023-03-20T06:59:53.635Z,74.64
2023-03-20T07:00:55.316Z,74.54
2023-03-20T07:02:01.454Z,74.51
2023-03-20T07:03:03.641Z,74.40
2023-03-20T07:04:06.807Z,74.23
2023-03-20T07:05:10.378Z,74.18
2023-03-20T07:06:14.108Z,74.03
2023-03-20T07:07:26.801Z,74.00
2023-03-20T07:08:29.043Z,73.93
2023-03-20T07:09:31.552Z,73.86
2023-03-20T07:10:44.055Z,73.50
2023-03-20T07:11:45.882Z,73.47
2023-03-20T07:12:49.306Z,73.39
2023-03-20T07:13:51.290Z,73.21
2023-03-20T07:14:53.838Z,73.22
2023-03-20T07:16:07.507Z,72.97
2023-03-20T07:17:19.144Z,73.21
2023-03-20T07:18:22.248Z,72.92
2023-03-20T07:19:25.433Z,72.88
2023-03-20T07:20:28.619Z,72.76
2023-03-20T07:21:31.764Z,72.73
2023-03-20T07:22:34.343Z,72.69
2023-03-20T07:23:36.229Z,72.70
2023-03-20T07:24:38.935Z,72.54
2023-03-20T07:25:51.834Z,72.45
2023-03-20T07:27:00.040Z,72.39
2023-03-20T07:28:02.624Z,72.48
2023-03-20T07:29:04.218Z,72.35
2023-03-20T07:30:08.744Z,72.30
2023-03-20T07:31:19.625Z,72.15
2023-03-20T07:32:22.149Z,72.27
2023-03-20T07:33:33.659Z,72.03
2023-03-20T07:34:36.271Z,71.97
2023-03-20T07:35:39.640Z,71.86
2023-03-20T07:36:42.624Z,71.81
2023-03-20T07:37:45.558Z,71.75
2023-03-20T07:38:48.443Z,71.80
2023-03-20T07:39:50.991Z,71.49
2023-03-20T07:40:54.352Z,71.49
2023-03-20T07:41:57.950Z,71.43
2023-03-20T07:42:59.603Z,71.53
2023-03-20T07:44:02.323Z,71.23
2023-03-20T07:45:04.984Z,71.24
2023-03-20T07:46:09.606Z,71.23
2023-03-20T07:47:12.222Z,71.16
2023-03-20T07:48:23.891Z,71.03
2023-03-20T07:49:26.394Z,70.98
2023-03-20T07:50:28.002Z,71.01
2023-03-20T07:51:32.231Z,70.76
2023-03-20T07:52:33.970Z,70.89
2023-03-20T07:53:36.964Z,70.69
2023-03-20T07:54:38.507Z,70.68
2023-03-20T07:55:41.362Z,70.63
2023-03-20T07:56:43.330Z,70.55
2023-03-20T07:57:45.849Z,70.49
2023-03-20T07:58:47.507Z,70.50
2023-03-20T07:59:58.861Z,70.39
2023-03-20T08:01:03.738Z,70.20
2023-03-20T08:02:06.510Z,70.16
2023-03-20T08:03:08.123Z,70.11
2023-03-20T08:04:10.749Z,70.09
2023-03-20T08:05:26.814Z,69.96
2023-03-20T08:06:29.946Z,69.95
2023-03-20T08:07:45.232Z,69.95
2023-03-20T08:08:57.823Z,69.78
2023-03-20T08:10:00.805Z,70.01
2023-03-20T08:11:02.476Z,69.52
2023-03-20T08:12:05.470Z,69.63
2023-03-20T08:13:07.181Z,69.62
2023-03-20T08:14:11.732Z,69.64
2023-03-20T08:15:13.546Z,69.46
2023-03-20T08:16:16.230Z,69.45
2023-03-20T08:17:22.505Z,69.42
2023-03-20T08:18:25.316Z,69.12
2023-03-20T08:19:28.413Z,69.08
2023-03-20T08:20:31.647Z,69.01
2023-03-20T08:21:33.577Z,69.00
2023-03-20T08:22:49.544Z,68.79
2023-03-20T08:23:52.043Z,69.07
2023-03-20T08:24:54.583Z,68.87
2023-03-20T08:25:56.338Z,68.81
2023-03-20T08:26:59.935Z,68.68
2023-03-20T08:28:02.839Z,68.42
2023-03-20T08:29:17.327Z,68.35
2023-03-20T08:30:20.053Z,68.52
2023-03-20T08:31:32.572Z,68.17
2023-03-20T08:32:34.384Z,68.28
2023-03-20T08:33:37.200Z,68.08
2023-03-20T08:34:39.065Z,67.99
2023-03-20T08:35:42.115Z,67.49
2023-03-20T08:36:44.663Z,67.35
2023-03-20T08:37:52.053Z,67.15
2023-03-20T08:38:54.584Z,67.25
2023-03-20T08:39:56.218Z,66.98
2023-03-20T08:40:58.901Z,66.78
2023-03-20T08:42:01.596Z,66.87
2023-03-20T08:43:03.712Z,66.67
2023-03-20T08:44:16.362Z,66.77
2023-03-20T08:45:18.019Z,66.50
2023-03-20T08:46:20.790Z,66.44
2023-03-20T08:47:22.461Z,66.46
2023-03-20T08:48:26.145Z,66.19
2023-03-20T08:49:29.113Z,66.15
2023-03-20T08:50:32.101Z,65.88
2023-03-20T08:51:34.289Z,65.97
2023-03-20T08:52:37.372Z,65.95
2023-03-20T08:53:41.560Z,65.77
2023-03-20T08:54:43.112Z,65.60
2023-03-20T08:55:49.850Z,65.38
2023-03-20T08:56:51.431Z,65.28
2023-03-20T08:57:54.480Z,65.10
2023-03-20T08:58:57.242Z,65.07
2023-03-20T08:59:59.769Z,64.88
2023-03-20T09:01:05.464Z,64.75
2023-03-20T09:02:12.217Z,64.89
2023-03-20T09:03:14.817Z,64.47
2023-03-20T09:04:18.016Z,64.71
2023-03-20T09:05:20.994Z,64.23
2023-03-20T09:06:22.542Z,64.29
2023-03-20T09:07:25.553Z,64.11
2023-03-20T09:08:27.161Z,63.67
2023-03-20T09:09:32.440Z,63.49
2023-03-20T09:10:35.402Z,63.33
2023-03-20T09:11:38.353Z,63.18
2023-03-20T09:12:40.014Z,63.33
2023-03-20T09:13:42.752Z,63.11
2023-03-20T09:14:44.637Z,62.91
2023-03-20T09:15:55.058Z,63.08
2023-03-20T09:16:57.683Z,62.92
2023-03-20T09:18:02.827Z,62.78
2023-03-20T09:19:07.493Z,62.49
2023-03-20T09:20:12.608Z,62.24
2023-03-20T09:21:15.559Z,62.33
2023-03-20T09:22:18.069Z,62.16
2023-03-20T09:23:31.916Z,62.19
2023-03-20T09:24:35.832Z,62.19
2023-03-20T09:25:37.633Z,61.98
2023-03-20T09:26:40.556Z,61.80
2023-03-20T09:27:43.220Z,61.74
2023-03-20T09:28:45.944Z,61.21
2023-03-20T09:29:47.622Z,61.36
2023-03-20T09:30:59.912Z,61.19
2023-03-20T09:32:02.944Z,60.96
2023-03-20T09:33:05.716Z,60.74
2023-03-20T09:34:08.714Z,60.58
2023-03-20T09:35:10.608Z,60.25
2023-03-20T09:36:13.331Z,60.35
2023-03-20T09:37:16.773Z,59.89
2023-03-20T09:38:18.418Z,59.89
2023-03-20T09:39:20.918Z,59.81
2023-03-20T09:40:28.518Z,59.93
2023-03-20T09:44:05.835Z,59.90
2023-03-20T09:45:12.161Z,59.81
2023-03-20T09:46:33.936Z,59.59
2023-03-20T09:47:43.544Z,59.45
2023-03-20T09:49:02.199Z,59.32
2023-03-20T09:50:14.517Z,59.50
2023-03-20T09:51:25.368Z,59.10
2023-03-20T09:52:30.145Z,58.98
2023-03-20T09:53:37.695Z,58.63
2023-03-20T09:54:53.753Z,58.79
2023-03-20T09:55:58.734Z,58.47
2023-03-20T09:57:03.045Z,58.20
2023-03-20T09:58:14.405Z,57.87
2023-03-20T09:59:19.131Z,58.02
2023-03-20T10:00:28.460Z,57.49
2023-03-20T10:01:41.696Z,57.44
2023-03-20T10:02:50.984Z,57.31
2023-03-20T10:03:57.203Z,57.35
2023-03-20T10:04:59.202Z,57.19
2023-03-20T10:06:05.849Z,57.16
2023-03-20T10:07:19.100Z,57.06
2023-03-20T10:08:24.488Z,57.18
2023-03-20T10:09:31.635Z,56.88
2023-03-20T10:10:46.102Z,56.69
2023-03-20T10:12:06.672Z,56.80
2023-03-20T10:13:26.631Z,56.77
2023-03-20T10:14:36.001Z,56.67
2023-03-20T10:15:49.884Z,56.93
2023-03-20T10:17:20.667Z,56.70
2023-03-20T10:18:26.144Z,56.67
2023-03-20T10:19:30.636Z,56.74
2023-03-20T10:20:36.212Z,56.22
2023-03-20T10:21:44.500Z,56.28
2023-03-20T10:22:51.904Z,56.29
2023-03-20T10:24:00.868Z,55.94
2023-03-20T10:25:08.683Z,56.30
2023-03-20T10:26:12.738Z,56.22
2023-03-20T10:27:22.918Z,56.16
2023-03-20T10:28:32.914Z,55.83
2023-03-20T10:29:50.972Z,55.96
2023-03-20T10:31:19.201Z,55.89
2023-03-20T10:32:29.352Z,55.91
2023-03-20T10:33:46.772Z,55.93
2023-03-20T10:35:00.092Z,55.71
2023-03-20T10:36:19.274Z,55.91
2023-03-20T10:37:38.589Z,55.66
2023-03-20T10:38:47.745Z,55.73
2023-03-20T10:40:02.139Z,55.82
2023-03-20T10:41:10.662Z,55.54
2023-03-20T10:42:19.702Z,55.73
2023-03-20T10:43:24.976Z,55.83
2023-03-20T10:44:33.437Z,55.55
2023-03-20T10:45:40.760Z,55.73
2023-03-20T10:46:46.546Z,55.76
2023-03-20T10:47:53.326Z,55.86
2023-03-20T10:49:02.186Z,56.04
2023-03-20T10:50:19.318Z,56.06
2023-03-20T10:51:27.484Z,55.95
2023-03-20T10:52:33.178Z,55.86
2023-03-20T10:53:42.392Z,55.99
2023-03-20T10:54:46.892Z,56.08
2023-03-20T10:55:50.156Z,56.21
2023-03-20T10:56:55.845Z,56.10
2023-03-20T10:58:03.992Z,56.05
2023-03-20T10:59:13.381Z,56.36
2023-03-20T11:00:19.923Z,56.36
2023-03-20T11:01:25.392Z,56.25
2023-03-20T11:02:30.248Z,56.49
2023-03-20T11:03:34.326Z,56.60
2023-03-20T11:04:36.272Z,56.82
2023-03-20T11:05:41.798Z,56.59
2023-03-20T11:07:01.840Z,56.71
2023-03-20T11:08:06.743Z,56.71
2023-03-20T11:09:18.260Z,57.00
2023-03-20T11:10:20.233Z,57.01
2023-03-20T11:11:26.492Z,56.81
2023-03-20T11:12:33.614Z,56.84
2023-03-20T11:13:39.955Z,56.83
2023-03-20T11:14:41.527Z,57.14
2023-03-20T11:15:44.334Z,56.83
2023-03-20T11:16:50.108Z,56.65
2023-03-20T11:17:56.651Z,56.69
2023-03-20T11:19:08.384Z,56.58
2023-03-20T11:20:14.329Z,56.46
2023-03-20T11:21:21.263Z,56.33
2023-03-20T11:22:26.567Z,56.18
2023-03-20T11:23:32.329Z,56.03
2023-03-20T11:24:39.016Z,56.17
2023-03-20T11:25:51.387Z,56.03
2023-03-20T11:26:54.965Z,56.11
2023-03-20T11:27:58.310Z,56.13
2023-03-20T11:29:02.303Z,56.04
2023-03-20T11:30:08.306Z,55.95
2023-03-20T11:31:27.199Z,55.70
2023-03-20T11:32:32.305Z,55.66
2023-03-20T11:33:38.603Z,55.78
2023-03-20T11:34:43.286Z,55.70
2023-03-20T11:35:46.329Z,55.31
2023-03-20T11:37:09.159Z,55.32
2023-03-20T11:38:16.588Z,55.26
2023-03-20T11:39:25.199Z,55.51
2023-03-20T11:40:32.508Z,55.58
2023-03-20T11:41:34.340Z,55.59
2023-03-20T11:42:37.140Z,55.41
2023-03-20T11:43:41.868Z,55.67
2023-03-20T11:44:58.790Z,55.77
2023-03-20T11:46:04.317Z,55.72
2023-03-20T11:47:13.530Z,55.89
2023-03-20T11:48:19.060Z,55.76
2023-03-20T11:49:25.493Z,56.06
2023-03-20T11:50:31.942Z,55.79
2023-03-20T11:51:37.998Z,56.11
2023-03-20T11:52:40.511Z,56.36
2023-03-20T11:53:55.240Z,56.51
2023-03-20T11:55:23.861Z,56.61
2023-03-20T11:56:27.206Z,56.88
2023-03-20T11:57:42.160Z,57.10
2023-03-20T11:58:51.540Z,57.04
2023-03-20T11:59:57.038Z,57.16
2023-03-20T12:01:01.634Z,57.26
2023-03-20T12:02:13.993Z,57.18
2023-03-20T12:03:41.702Z,57.46
2023-03-20T12:04:47.185Z,57.47
2023-03-20T12:05:49.178Z,57.54
2023-03-20T12:06:57.236Z,57.57
2023-03-20T12:08:03.162Z,58.03
2023-03-20T12:09:13.311Z,58.01
2023-03-20T12:10:19.271Z,57.96
2023-03-20T12:11:37.074Z,57.95
2023-03-20T12:12:45.673Z,58.11
2023-03-20T12:13:51.252Z,57.84
2023-03-20T12:15:03.873Z,58.12
2023-03-20T12:16:11.364Z,58.02
2023-03-20T12:17:34.544Z,58.32
2023-03-20T12:18:41.912Z,58.30
2023-03-20T12:19:45.865Z,58.38
2023-03-20T12:21:01.104Z,58.33
2023-03-20T12:22:15.990Z,58.45
2023-03-20T12:23:27.049Z,58.13
2023-03-20T12:24:36.818Z,58.47
2023-03-20T12:25:45.318Z,58.55
2023-03-20T12:26:55.697Z,58.65
2023-03-20T12:28:04.876Z,59.06
2023-03-20T12:29:11.313Z,58.97
2023-03-20T12:30:20.893Z,59.02
2023-03-20T12:31:27.260Z,59.24
2023-03-20T12:32:35.596Z,59.42
2023-03-20T12:33:48.678Z,59.62
2023-03-20T12:34:55.046Z,59.64
2023-03-20T12:35:59.418Z,59.97
2023-03-20T12:37:03.817Z,59.64
2023-03-20T12:38:16.969Z,60.22
2023-03-20T12:39:23.710Z,60.08
2023-03-20T12:40:37.820Z,59.77
2023-03-20T12:41:50.609Z,60.08
2023-03-20T12:43:04.922Z,59.88
2023-03-20T12:44:19.500Z,60.00
2023-03-20T12:45:33.534Z,60.10
2023-03-20T12:46:52.537Z,60.26
2023-03-20T12:48:07.472Z,59.77
2023-03-20T12:49:20.822Z,59.82
2023-03-20T12:50:32.735Z,59.99
2023-03-20T12:51:47.463Z,59.72
2023-03-20T12:52:58.951Z,59.88
2023-03-20T12:54:17.807Z,59.68
2023-03-20T12:55:32.183Z,59.80
2023-03-20T12:56:51.439Z,59.78
2023-03-20T12:58:03.169Z,59.56
2023-03-20T12:59:15.584Z,59.04
2023-03-20T13:00:30.855Z,59.16
2023-03-20T13:01:38.386Z,59.14
2023-03-20T13:02:56.603Z,59.02
2023-03-20T13:04:20.960Z,58.98
2023-03-20T13:05:37.744Z,58.79
2023-03-20T13:06:51.582Z,58.88
2023-03-20T13:08:11.143Z,58.76
2023-03-20T13:09:36.423Z,58.80
2023-03-20T13:10:41.551Z,58.96
2023-03-20T13:11:50.801Z,58.85
2023-03-20T13:13:10.221Z,58.86
2023-03-20T13:14:21.832Z,59.10
2023-03-20T13:15:35.421Z,58.80
2023-03-20T13:16:47.076Z,58.53
2023-03-20T13:17:55.381Z,58.51
2023-03-20T13:19:02.806Z,58.39
2023-03-20T13:20:20.224Z,58.34
2023-03-20T13:21:32.965Z,58.12
2023-03-20T13:22:49.258Z,58.14
2023-03-20T13:24:02.963Z,58.00
2023-03-20T13:25:17.920Z,57.97
2023-03-20T13:26:32.514Z,57.64
2023-03-20T13:27:41.997Z,57.73
2023-03-20T13:29:03.687Z,57.97
2023-03-20T13:30:18.071Z,57.41
2023-03-20T13:31:37.859Z,57.30
2023-03-20T13:32:53.728Z,57.40
2023-03-20T13:34:02.312Z,57.19
2023-03-20T13:35:26.807Z,56.92
2023-03-20T13:36:45.896Z,57.37
2023-03-20T13:37:51.815Z,57.07
2023-03-20T13:39:01.754Z,57.02
2023-03-20T13:40:13.199Z,56.58
2023-03-20T13:41:17.133Z,56.76
2023-03-20T13:42:22.113Z,56.78
2023-03-20T13:43:30.088Z,56.59
2023-03-20T13:44:35.656Z,56.53
2023-03-20T13:45:52.181Z,56.34
2023-03-20T13:46:59.485Z,56.35
2023-03-20T13:48:08.639Z,56.54
2023-03-20T13:49:17.361Z,56.60
2023-03-20T13:50:37.103Z,56.73
2023-03-20T13:51:43.807Z,56.53
2023-03-20T13:52:50.102Z,56.90
2023-03-20T13:54:02.532Z,56.85
2023-03-20T13:55:19.841Z,56.69
2023-03-20T13:56:31.468Z,56.59
2023-03-20T13:57:49.475Z,56.25
2023-03-20T13:59:25.914Z,56.53
2023-03-20T14:00:36.777Z,56.33
2023-03-20T14:01:50.855Z,56.59
2023-03-20T14:03:12.163Z,56.79
2023-03-20T14:04:19.277Z,56.77
2023-03-20T14:05:37.702Z,57.11
2023-03-20T14:06:53.247Z,56.97
2023-03-20T14:07:57.889Z,57.03
2023-03-20T14:09:00.806Z,57.12
2023-03-20T14:10:38.030Z,57.20
2023-03-20T14:11:40.787Z,57.00
2023-03-20T14:12:42.454Z,57.29
2023-03-20T14:13:48.481Z,57.15
2023-03-20T14:14:56.271Z,57.23
2023-03-20T14:16:03.403Z,57.37
2023-03-20T14:17:16.760Z,57.27
2023-03-20T14:18:23.762Z,57.19
2023-03-20T14:19:27.593Z,57.02
2023-03-20T14:20:33.031Z,57.03
2023-03-20T14:21:35.970Z,57.36
2023-03-20T14:22:41.103Z,57.16
2023-03-20T14:23:49.111Z,57.33
2023-03-20T14:24:57.644Z,57.47
2023-03-20T14:26:00.773Z,57.31
2023-03-20T14:27:04.061Z,57.37
2023-03-20T14:28:24.165Z,57.34
2023-03-20T14:29:38.691Z,57.27
2023-03-20T14:30:43.798Z,56.99
2023-03-20T14:31:52.049Z,57.36
2023-03-20T14:33:01.542Z,57.47
2023-03-20T14:34:18.969Z,57.52
2023-03-20T14:35:25.657Z,57.67
2023-03-20T14:36:31.615Z,57.62
2023-03-20T14:37:40.096Z,57.51
2023-03-20T14:38:54.166Z,57.79
2023-03-20T14:40:04.063Z,57.95
2023-03-20T14:41:15.649Z,57.86
2023-03-20T14:42:33.856Z,57.84
2023-03-20T14:43:56.781Z,58.02
2023-03-20T14:45:28.467Z,57.67
2023-03-20T14:46:41.442Z,57.92
2023-03-20T14:47:50.713Z,57.98
2023-03-20T14:48:55.821Z,58.19
2023-03-20T14:50:10.215Z,57.93
2023-03-20T14:51:23.858Z,57.70
2023-03-20T14:52:50.390Z,58.01
2023-03-20T14:53:57.728Z,57.79
2023-03-20T14:55:28.914Z,58.05
2023-03-20T14:56:34.449Z,58.38
2023-03-20T14:57:54.704Z,58.30
2023-03-20T14:59:03.007Z,58.56
2023-03-20T15:00:08.264Z,58.33
2023-03-20T15:01:41.976Z,58.42
2023-03-20T15:02:49.092Z,58.34
2023-03-20T15:03:53.506Z,58.53
2023-03-20T15:04:57.270Z,58.06
2023-03-20T15:06:04.566Z,58.09